Hauptseite
METAR-TAF:

METAR-TAF

Flughäfen :

Flughafen Bamako

Bamako, Mali

Breite: 12-32N, Länge: 007-57W, Höhe: 380 m

Beobachtung

Neuester Wetterbericht von vor 43 Minuten, um 03:30 UTC
Wind 5 kt aus Nordost
Temperatur 18°C
Luftfeuchtigkeit 32%
Luftdruck 1013 hPa
Sichtweite 10 km oder mehr
keine Wolken unter 1500 m und keine Kumulonimbus oder Gewitterwolken

METAR: GABS 200330Z 05005KT CAVOK 18/01 Q1013 NOSIG

Zeit: 04:13 (04:13 UTC)

Prognose

Neuester Wetterbericht von vor 5 Stunden und 13 Minuten, um 23:00 UTC
Gültige Prognose vom 20 um 00 UTC bis 21 um 06 UTC
Wind 8 kt aus Nordost
Sichtweite: 8000 m
Zeitweise
vom 20 um 06 UTC bis 20 um 12 UTC
Wind 10 kt aus Ost
Übergehend zu
vom 20 um 12 UTC bis 20 um 14 UTC
Wind 4 kt aus unterschiedlichen Richtungen

TAF: GABS 192300Z 2000/2106 04008KT 8000 NSC TEMPO 2006/2012 10010KT BECMG 2012/2014 VRB04KT

Wetterbeobachtungen und Prognosen von mehr als 4000 Flughäfen (METAR und TAF Bericht).

Die verfügbaren Stationen werden durch gelbe und rote Markierungen auf der Karte dargestellt.

Führen Sie die Maus auf sie, um den Namen der Station zu sehen.

Darauf klicken, um die Beobachtung von Wetterbeobachtungen und Prognosen zu sehen.

Um die Karte zu ändern : klicken Sie auf den grünen Tasten mit einem schwarzen Kreuz Zum Vergrößern, auf den grünen Button mit einem Gedankenstrich zu verkleinern, oder auf die grünen Pfeile für benachbarte Karten.


METAR-TAF: